createdAt,value
2022-12-20T00:01:33.421Z,9.00
2022-12-20T00:04:02.556Z,8.83
2022-12-20T00:06:29.649Z,8.73
2022-12-20T00:08:58.770Z,7.53
2022-12-20T00:11:26.956Z,7.47
2022-12-20T00:13:54.030Z,7.67
2022-12-20T00:16:25.158Z,7.33
2022-12-20T00:18:55.085Z,7.30
2022-12-20T00:21:22.372Z,7.20
2022-12-20T00:23:49.241Z,7.47
2022-12-20T00:26:18.745Z,7.47
2022-12-20T00:28:46.144Z,7.90
2022-12-20T00:31:15.336Z,8.13
2022-12-20T00:33:44.980Z,7.90
2022-12-20T00:36:12.231Z,7.93
2022-12-20T00:38:39.261Z,7.33
2022-12-20T00:41:12.537Z,7.10
2022-12-20T00:43:41.086Z,7.47
2022-12-20T00:46:11.680Z,8.00
2022-12-20T00:48:39.498Z,7.63
2022-12-20T00:51:12.248Z,7.20
2022-12-20T00:53:40.443Z,7.50
2022-12-20T00:56:08.915Z,7.10
2022-12-20T00:58:39.321Z,7.67
2022-12-20T01:01:16.450Z,7.37
2022-12-20T01:03:43.324Z,7.27
2022-12-20T01:06:11.431Z,7.17
2022-12-20T01:08:39.507Z,7.83
2022-12-20T01:11:34.603Z,17.20
2022-12-20T01:14:06.163Z,6.50
2022-12-20T01:16:37.895Z,18.20
2022-12-20T01:19:06.814Z,22.43
2022-12-20T01:21:34.652Z,8.60
2022-12-20T01:24:01.396Z,8.27
2022-12-20T01:26:30.153Z,7.90
2022-12-20T01:28:59.953Z,10.77
2022-12-20T01:31:27.322Z,8.43
2022-12-20T01:33:54.841Z,10.33
2022-12-20T01:36:27.619Z,7.63
2022-12-20T01:39:15.613Z,8.50
2022-12-20T01:41:44.040Z,7.37
2022-12-20T01:44:16.826Z,7.00
2022-12-20T01:46:45.067Z,8.53
2022-12-20T01:49:20.538Z,10.87
2022-12-20T01:51:52.065Z,9.87
2022-12-20T01:54:31.206Z,7.00
2022-12-20T01:57:02.350Z,7.30
2022-12-20T01:59:29.727Z,7.47
2022-12-20T02:02:03.521Z,7.70
2022-12-20T02:04:30.489Z,6.77
2022-12-20T02:06:58.156Z,5.63
2022-12-20T02:09:25.159Z,6.47
2022-12-20T02:12:19.976Z,5.97
2022-12-20T02:14:58.555Z,6.47
2022-12-20T02:17:56.680Z,6.47
2022-12-20T02:21:02.406Z,6.07
2022-12-20T02:23:54.269Z,6.40
2022-12-20T02:26:39.924Z,6.17
2022-12-20T02:29:18.804Z,6.07
2022-12-20T02:32:17.202Z,6.70
2022-12-20T02:34:44.718Z,6.17
2022-12-20T02:37:12.127Z,6.73
2022-12-20T02:39:42.112Z,7.37
2022-12-20T02:42:21.615Z,5.87
2022-12-20T02:45:15.503Z,12.03
2022-12-20T02:47:49.927Z,4.83
2022-12-20T02:50:48.687Z,9.10
2022-12-20T02:53:16.849Z,5.33
2022-12-20T02:55:48.152Z,4.97
2022-12-20T02:58:34.702Z,5.07
2022-12-20T03:01:09.264Z,6.40
2022-12-20T03:03:36.919Z,5.30
2022-12-20T03:06:03.906Z,5.40
2022-12-20T03:08:30.785Z,5.20
2022-12-20T03:10:57.965Z,5.30
2022-12-20T03:13:25.826Z,5.63
2022-12-20T03:15:58.903Z,4.30
2022-12-20T03:18:25.740Z,4.80
2022-12-20T03:20:52.458Z,4.80
2022-12-20T03:23:19.248Z,5.00
2022-12-20T03:25:46.334Z,5.10
2022-12-20T03:28:20.692Z,4.23
2022-12-20T03:30:47.639Z,4.20
2022-12-20T03:33:14.457Z,4.43
2022-12-20T03:35:43.047Z,4.77
2022-12-20T03:38:10.867Z,5.07
2022-12-20T03:40:37.734Z,4.33
2022-12-20T03:43:05.422Z,5.10
2022-12-20T03:45:32.223Z,4.40
2022-12-20T03:47:59.030Z,5.07
2022-12-20T03:50:28.303Z,4.27
2022-12-20T03:52:55.952Z,4.50
2022-12-20T03:55:22.830Z,3.87
2022-12-20T03:57:50.472Z,4.47
2022-12-20T04:00:28.060Z,4.30
2022-12-20T04:03:05.895Z,4.27
2022-12-20T04:05:33.614Z,4.07
2022-12-20T04:08:01.007Z,3.77
2022-12-20T04:10:28.079Z,4.50
2022-12-20T04:12:56.486Z,3.73
2022-12-20T04:15:23.799Z,4.43
2022-12-20T04:17:53.903Z,4.13
2022-12-20T04:20:21.091Z,4.17
2022-12-20T04:23:00.955Z,4.03
2022-12-20T04:25:28.152Z,3.47
2022-12-20T04:27:56.184Z,4.40
2022-12-20T04:30:22.898Z,4.00
2022-12-20T04:32:49.885Z,4.40
2022-12-20T04:35:16.686Z,4.07
2022-12-20T04:37:43.614Z,3.80
2022-12-20T04:40:11.404Z,5.27
2022-12-20T04:42:46.470Z,9.50
2022-12-20T04:45:14.854Z,24.57
2022-12-20T04:47:41.761Z,6.70
2022-12-20T04:50:11.463Z,4.50
2022-12-20T04:52:59.842Z,12.07
2022-12-20T04:55:26.748Z,6.50
2022-12-20T04:57:53.432Z,5.53
2022-12-20T05:00:21.073Z,5.53
2022-12-20T05:02:54.322Z,3.63
2022-12-20T05:05:24.316Z,3.90
2022-12-20T05:07:55.332Z,4.87
2022-12-20T05:10:23.214Z,5.10
2022-12-20T05:12:51.329Z,3.70
2022-12-20T05:15:29.786Z,3.40
2022-12-20T05:18:00.371Z,3.70
2022-12-20T05:20:35.098Z,4.20
2022-12-20T05:23:21.361Z,4.90
2022-12-20T05:26:02.635Z,3.60
2022-12-20T05:28:30.546Z,3.70
2022-12-20T05:30:58.106Z,3.60
2022-12-20T05:33:30.453Z,3.00
2022-12-20T05:36:01.632Z,3.23
2022-12-20T05:38:28.432Z,3.80
2022-12-20T05:40:55.787Z,3.30
2022-12-20T05:43:22.833Z,3.70
2022-12-20T05:45:52.935Z,3.33
2022-12-20T05:48:28.668Z,3.77
2022-12-20T05:50:55.851Z,3.53
2022-12-20T05:53:28.641Z,3.10
2022-12-20T05:55:59.392Z,3.63
2022-12-20T05:58:29.858Z,3.10
2022-12-20T06:01:05.651Z,3.57
2022-12-20T06:03:37.997Z,3.73
2022-12-20T06:06:13.919Z,3.20
2022-12-20T06:08:41.156Z,3.60
2022-12-20T06:11:11.810Z,3.90
2022-12-20T06:13:48.871Z,3.33
2022-12-20T06:16:15.942Z,2.97
2022-12-20T06:18:43.678Z,3.07
2022-12-20T06:21:12.467Z,3.13
2022-12-20T06:23:39.173Z,3.20
2022-12-20T06:26:09.832Z,3.80
2022-12-20T06:28:46.381Z,3.60
2022-12-20T06:31:14.003Z,3.60
2022-12-20T06:33:47.892Z,3.70
2022-12-20T06:36:16.430Z,3.57
2022-12-20T06:38:44.259Z,3.80
2022-12-20T06:41:11.379Z,3.87
2022-12-20T06:43:39.083Z,3.23
2022-12-20T06:46:06.451Z,3.43
2022-12-20T06:48:33.251Z,3.13
2022-12-20T06:51:00.158Z,3.93
2022-12-20T06:53:28.039Z,3.77
2022-12-20T06:55:55.066Z,3.50
2022-12-20T06:58:22.512Z,3.50
2022-12-20T07:00:49.693Z,4.00
2022-12-20T07:03:16.724Z,4.00
2022-12-20T07:05:44.095Z,4.33
2022-12-20T07:08:11.256Z,4.07
2022-12-20T07:10:38.055Z,4.07
2022-12-20T07:13:04.792Z,4.27
2022-12-20T07:15:31.654Z,3.77
2022-12-20T07:17:59.360Z,3.47
2022-12-20T07:20:26.469Z,3.50
2022-12-20T07:22:53.320Z,3.40
2022-12-20T07:25:20.284Z,3.77
2022-12-20T07:27:50.136Z,3.47
2022-12-20T07:30:18.184Z,3.23
2022-12-20T07:32:45.260Z,3.80
2022-12-20T07:35:13.296Z,4.57
2022-12-20T07:37:40.394Z,3.17
2022-12-20T07:40:08.606Z,3.60
2022-12-20T07:42:37.320Z,3.50
2022-12-20T07:45:07.820Z,3.33
2022-12-20T07:47:35.965Z,2.63
2022-12-20T07:50:03.737Z,3.33
2022-12-20T07:52:34.722Z,3.20
2022-12-20T07:55:03.965Z,3.63
2022-12-20T07:57:45.305Z,3.63
2022-12-20T08:00:13.549Z,3.63
2022-12-20T08:02:47.197Z,3.07
2022-12-20T08:05:14.794Z,3.60
2022-12-20T08:07:42.960Z,4.13
2022-12-20T08:10:13.541Z,4.07
2022-12-20T08:12:41.917Z,3.73
2022-12-20T08:15:09.109Z,3.20
2022-12-20T08:17:35.838Z,3.50
2022-12-20T08:20:03.121Z,3.63
2022-12-20T08:22:29.854Z,3.60
2022-12-20T08:24:57.103Z,3.50
2022-12-20T08:27:23.847Z,3.70
2022-12-20T08:29:50.643Z,3.57
2022-12-20T08:32:17.456Z,4.50
2022-12-20T08:34:44.772Z,3.40
2022-12-20T08:37:14.955Z,3.90
2022-12-20T08:39:42.278Z,3.57
2022-12-20T08:42:09.215Z,3.80
2022-12-20T08:44:35.995Z,4.67
2022-12-20T08:47:02.706Z,4.00
2022-12-20T08:49:30.059Z,5.10
2022-12-20T08:51:57.828Z,4.90
2022-12-20T08:54:24.526Z,4.03
2022-12-20T08:56:51.216Z,4.60
2022-12-20T08:59:18.561Z,4.23
2022-12-20T09:01:45.942Z,4.17
2022-12-20T09:04:13.290Z,4.80
2022-12-20T09:06:40.968Z,4.37
2022-12-20T09:09:08.299Z,3.87
2022-12-20T09:11:35.007Z,4.47
2022-12-20T09:14:02.079Z,4.43
2022-12-20T09:16:31.916Z,4.33
2022-12-20T09:19:05.060Z,4.67
2022-12-20T09:21:32.959Z,4.97
2022-12-20T09:24:00.440Z,4.47
2022-12-20T09:26:28.046Z,4.47
2022-12-20T09:28:54.905Z,3.97
2022-12-20T09:31:23.821Z,4.30
2022-12-20T09:33:54.812Z,3.77
2022-12-20T09:36:23.904Z,3.87
2022-12-20T09:38:51.217Z,3.67
2022-12-20T09:41:43.215Z,4.40
2022-12-20T09:44:34.447Z,3.83
2022-12-20T09:47:10.587Z,3.70
2022-12-20T09:49:44.831Z,4.10
2022-12-20T09:52:31.130Z,4.40
2022-12-20T09:55:19.548Z,4.10
2022-12-20T09:58:04.773Z,4.10
2022-12-20T10:00:40.405Z,4.10
2022-12-20T10:03:14.997Z,3.77
2022-12-20T10:05:57.771Z,4.10
2022-12-20T10:08:25.157Z,3.90
2022-12-20T10:11:00.139Z,4.47
2022-12-20T10:14:02.444Z,4.30
2022-12-20T10:16:46.525Z,4.20
2022-12-20T10:19:35.197Z,4.40
2022-12-20T10:22:30.044Z,3.97
2022-12-20T10:25:11.900Z,4.23
2022-12-20T10:27:43.376Z,4.00
2022-12-20T10:30:23.592Z,3.93
2022-12-20T10:32:55.898Z,3.53
2022-12-20T10:35:37.505Z,3.73
2022-12-20T10:38:08.843Z,3.97
2022-12-20T10:41:18.944Z,4.13
2022-12-20T10:43:28.531Z,4.10
2022-12-20T10:46:02.452Z,3.67
2022-12-20T10:48:29.356Z,5.43
2022-12-20T10:51:06.206Z,4.40
2022-12-20T10:53:35.690Z,4.07
2022-12-20T10:56:29.134Z,3.63
2022-12-20T10:59:00.568Z,3.57
2022-12-20T11:01:34.049Z,3.67
2022-12-20T11:04:21.194Z,3.33
2022-12-20T11:06:48.186Z,3.20
2022-12-20T11:09:37.126Z,3.53
2022-12-20T11:12:12.265Z,4.23
2022-12-20T11:14:40.446Z,4.30
2022-12-20T11:17:17.880Z,3.70
2022-12-20T11:19:52.156Z,4.00
2022-12-20T11:22:28.315Z,4.60
2022-12-20T11:25:06.202Z,3.80
2022-12-20T11:27:55.401Z,3.50
2022-12-20T11:30:35.712Z,3.60
2022-12-20T11:33:20.856Z,3.60
2022-12-20T11:36:00.754Z,3.57
2022-12-20T11:38:36.715Z,3.50
2022-12-20T11:41:25.208Z,3.50
2022-12-20T11:44:24.437Z,3.80
2022-12-20T11:46:48.417Z,3.50
2022-12-20T11:49:57.581Z,3.90
2022-12-20T11:52:47.117Z,4.00
2022-12-20T11:55:14.192Z,3.63
2022-12-20T11:58:16.895Z,3.87
2022-12-20T12:00:38.139Z,4.13
2022-12-20T12:03:15.175Z,4.00
2022-12-20T12:06:01.133Z,4.47
2022-12-20T12:08:41.038Z,4.23
2022-12-20T12:11:55.673Z,4.00
2022-12-20T12:14:06.042Z,3.73
2022-12-20T12:16:42.859Z,3.87
2022-12-20T12:19:12.902Z,4.27
2022-12-20T12:22:02.262Z,4.20
2022-12-20T12:24:35.353Z,4.43
2022-12-20T12:27:02.959Z,4.30
2022-12-20T12:29:31.386Z,4.37
2022-12-20T12:32:11.715Z,4.23
2022-12-20T12:34:50.998Z,3.90
2022-12-20T12:37:34.987Z,3.83
2022-12-20T12:40:29.149Z,4.03
2022-12-20T12:43:14.859Z,4.00
2022-12-20T12:45:47.724Z,4.10
2022-12-20T12:48:22.473Z,4.17
2022-12-20T12:50:53.699Z,4.30
2022-12-20T12:53:22.506Z,4.73
2022-12-20T12:56:07.563Z,4.93
2022-12-20T12:58:48.500Z,5.07
2022-12-20T13:01:56.180Z,5.20
2022-12-20T13:04:30.202Z,5.70
2022-12-20T13:07:01.850Z,6.33
2022-12-20T13:09:28.496Z,5.00
2022-12-20T13:12:02.508Z,5.00
2022-12-20T13:14:35.767Z,4.57
2022-12-20T13:17:12.162Z,4.40
2022-12-20T13:19:49.260Z,4.60
2022-12-20T13:22:25.238Z,5.43
2022-12-20T13:25:04.503Z,4.57
2022-12-20T13:27:41.617Z,5.30
2022-12-20T13:30:12.097Z,5.37
2022-12-20T13:32:48.392Z,6.50
2022-12-20T13:35:24.680Z,8.57
2022-12-20T13:38:13.571Z,6.57
2022-12-20T13:40:55.348Z,6.27
2022-12-20T13:43:22.296Z,5.83
2022-12-20T13:45:58.960Z,5.17
2022-12-20T13:48:32.284Z,5.37
2022-12-20T13:50:59.727Z,5.90
2022-12-20T13:53:27.990Z,6.20
2022-12-20T13:55:56.733Z,6.23
2022-12-20T13:58:44.904Z,7.03
2022-12-20T14:01:13.855Z,7.53
2022-12-20T14:03:45.067Z,8.43
2022-12-20T14:06:14.924Z,8.20
2022-12-20T14:08:47.259Z,9.50
2022-12-20T14:11:20.250Z,8.23
2022-12-20T14:14:15.837Z,6.10
2022-12-20T14:16:42.552Z,7.20
2022-12-20T14:19:15.071Z,6.70
2022-12-20T14:21:45.521Z,7.23
2022-12-20T14:24:19.295Z,7.83
2022-12-20T14:26:48.729Z,9.20
2022-12-20T14:29:26.961Z,52.03
2022-12-20T14:31:53.955Z,18.57
2022-12-20T14:34:30.042Z,11.33
2022-12-20T14:37:27.543Z,8.33
2022-12-20T14:40:15.889Z,10.00
2022-12-20T14:42:42.869Z,9.37
2022-12-20T14:45:09.632Z,7.90
2022-12-20T14:47:38.069Z,9.83
2022-12-20T14:50:22.379Z,9.03
2022-12-20T14:52:49.460Z,8.43
2022-12-20T14:55:22.502Z,8.37
2022-12-20T14:57:52.701Z,17.27
2022-12-20T15:00:19.378Z,9.27
2022-12-20T15:02:52.763Z,39.50
2022-12-20T15:05:40.655Z,23.33
2022-12-20T15:08:17.173Z,18.17
2022-12-20T15:11:08.492Z,13.77
2022-12-20T15:13:42.552Z,11.20
2022-12-20T15:16:18.473Z,10.90
2022-12-20T15:18:46.575Z,12.47
2022-12-20T15:21:15.772Z,18.50
2022-12-20T15:23:51.719Z,18.13
2022-12-20T15:26:21.658Z,17.83
2022-12-20T15:28:48.518Z,10.90
2022-12-20T15:31:18.545Z,9.67
2022-12-20T15:33:46.733Z,8.80
2022-12-20T15:36:19.612Z,8.67
2022-12-20T15:39:11.162Z,8.10
2022-12-20T15:41:35.023Z,9.90
2022-12-20T15:44:13.227Z,9.70
2022-12-20T15:46:40.025Z,10.47
2022-12-20T15:49:06.977Z,12.67
2022-12-20T15:51:36.151Z,13.10
2022-12-20T15:54:05.826Z,13.30
2022-12-20T15:56:33.553Z,14.40
2022-12-20T15:59:00.731Z,13.37
2022-12-20T16:01:38.320Z,13.30
2022-12-20T16:04:08.310Z,11.00
2022-12-20T16:06:35.190Z,9.97
2022-12-20T16:09:02.005Z,9.20
2022-12-20T16:11:30.977Z,9.97
2022-12-20T16:13:59.897Z,10.43
2022-12-20T16:16:29.222Z,10.57
2022-12-20T16:18:56.446Z,10.73
2022-12-20T16:21:31.250Z,13.13
2022-12-20T16:23:58.643Z,13.40
2022-12-20T16:26:26.521Z,12.00
2022-12-20T16:28:55.180Z,13.33
2022-12-20T16:31:31.366Z,13.40
2022-12-20T16:34:01.150Z,14.60
2022-12-20T16:36:28.304Z,13.10
2022-12-20T16:38:55.470Z,13.50
2022-12-20T16:41:25.373Z,12.63
2022-12-20T16:43:52.421Z,12.77
2022-12-20T16:46:21.736Z,12.03
2022-12-20T16:48:50.237Z,12.60
2022-12-20T16:51:39.653Z,11.60
2022-12-20T16:54:21.730Z,13.17
2022-12-20T16:56:55.227Z,12.80
2022-12-20T16:59:23.765Z,12.27
2022-12-20T17:01:53.611Z,11.53
2022-12-20T17:04:21.519Z,12.53
2022-12-20T17:06:49.340Z,12.23
2022-12-20T17:09:16.611Z,11.63
2022-12-20T17:11:43.838Z,12.87
2022-12-20T17:14:13.741Z,11.93
2022-12-20T17:16:41.181Z,13.03
2022-12-20T17:19:10.891Z,13.27
2022-12-20T17:24:27.021Z,16.17
2022-12-20T17:26:55.377Z,14.03
2022-12-20T17:29:22.140Z,13.97
2022-12-20T17:31:49.681Z,14.40
2022-12-20T17:34:22.390Z,13.67
2022-12-20T17:36:52.011Z,13.47
2022-12-20T17:39:19.468Z,13.53
2022-12-20T17:41:47.677Z,13.20
2022-12-20T17:44:19.683Z,14.53
2022-12-20T17:46:47.975Z,14.30
2022-12-20T17:49:14.899Z,14.97
2022-12-20T17:51:43.066Z,15.90
2022-12-20T17:54:34.853Z,15.90
2022-12-20T17:57:06.163Z,15.43
2022-12-20T17:59:33.125Z,16.50
2022-12-20T18:02:00.199Z,17.00
2022-12-20T18:04:27.228Z,16.07
2022-12-20T18:06:54.094Z,15.83
2022-12-20T18:09:21.966Z,15.87
2022-12-20T18:11:50.158Z,18.13
2022-12-20T18:14:18.594Z,15.93
2022-12-20T18:16:46.122Z,16.63
2022-12-20T18:19:19.341Z,17.67
2022-12-20T18:21:47.129Z,17.37
2022-12-20T18:24:16.033Z,16.67
2022-12-20T18:26:44.304Z,16.13
2022-12-20T18:29:11.478Z,17.07
2022-12-20T18:31:38.588Z,15.07
2022-12-20T18:34:05.509Z,16.13
2022-12-20T18:36:35.300Z,17.00
2022-12-20T18:39:05.397Z,15.43
2022-12-20T18:41:32.935Z,16.60
2022-12-20T18:44:03.721Z,16.37
2022-12-20T18:46:31.204Z,15.80
2022-12-20T18:49:00.280Z,16.93
2022-12-20T18:51:36.666Z,16.60
2022-12-20T18:54:05.721Z,15.60
2022-12-20T18:56:35.419Z,15.73
2022-12-20T18:59:10.848Z,16.17
2022-12-20T19:01:40.308Z,17.63
2022-12-20T19:04:07.987Z,16.97
2022-12-20T19:06:36.414Z,17.20
2022-12-20T19:09:06.779Z,17.93
2022-12-20T19:11:34.103Z,15.13
2022-12-20T19:14:01.509Z,16.37
2022-12-20T19:16:32.852Z,16.50
2022-12-20T19:19:02.672Z,16.40
2022-12-20T19:21:35.761Z,16.80
2022-12-20T19:24:06.951Z,16.27
2022-12-20T19:26:35.912Z,17.27
2022-12-20T19:29:03.419Z,17.10
2022-12-20T19:31:33.353Z,18.17
2022-12-20T19:34:08.747Z,16.10
2022-12-20T19:36:39.283Z,16.40
2022-12-20T19:39:11.939Z,16.73
2022-12-20T19:41:38.704Z,18.03
2022-12-20T19:44:06.315Z,18.87
2022-12-20T19:46:33.531Z,18.10
2022-12-20T19:49:00.753Z,17.00
2022-12-20T19:51:28.559Z,16.77
2022-12-20T19:53:57.415Z,16.77
2022-12-20T19:56:27.017Z,16.23
2022-12-20T19:58:55.517Z,16.17
2022-12-20T20:01:26.238Z,16.93
2022-12-20T20:03:58.531Z,17.33
2022-12-20T20:06:26.473Z,17.53
2022-12-20T20:08:57.624Z,17.87
2022-12-20T20:11:24.761Z,18.33
2022-12-20T20:13:52.300Z,18.13
2022-12-20T20:16:22.625Z,20.33
2022-12-20T20:18:50.224Z,19.43
2022-12-20T20:21:21.813Z,19.33
2022-12-20T20:23:53.496Z,20.00
2022-12-20T20:26:26.602Z,17.37
2022-12-20T20:28:53.480Z,16.37
2022-12-20T20:31:21.601Z,17.33
2022-12-20T20:33:49.289Z,18.10
2022-12-20T20:36:21.854Z,17.20
2022-12-20T20:38:50.095Z,17.33
2022-12-20T20:41:17.287Z,17.80
2022-12-20T20:43:44.896Z,18.47
2022-12-20T20:46:14.196Z,16.87
2022-12-20T20:48:42.874Z,17.87
2022-12-20T20:51:10.618Z,17.70
2022-12-20T20:53:38.786Z,16.63
2022-12-20T20:56:07.112Z,18.30
2022-12-20T20:58:35.395Z,17.70
2022-12-20T21:01:05.288Z,17.13
2022-12-20T21:03:32.784Z,16.13
2022-12-20T21:08:47.357Z,14.30
2022-12-20T21:11:15.303Z,16.27
2022-12-20T21:13:42.168Z,17.37
2022-12-20T21:16:20.279Z,15.63
2022-12-20T21:18:52.163Z,14.50
2022-12-20T21:21:20.398Z,12.97
2022-12-20T21:23:48.713Z,13.50
2022-12-20T21:26:18.468Z,14.63
2022-12-20T21:28:45.619Z,14.03
2022-12-20T21:31:18.733Z,13.20
2022-12-20T21:33:48.743Z,12.43
2022-12-20T21:36:18.614Z,14.57
2022-12-20T21:38:53.733Z,12.80
2022-12-20T21:41:23.446Z,12.97
2022-12-20T21:43:52.527Z,11.27
2022-12-20T21:46:19.253Z,11.00
2022-12-20T21:48:46.994Z,10.97
2022-12-20T21:51:19.831Z,10.77
2022-12-20T21:53:56.927Z,10.73
2022-12-20T21:56:26.140Z,10.70
2022-12-20T21:58:54.392Z,10.60
2022-12-20T22:01:23.677Z,10.07
2022-12-20T22:03:52.455Z,10.37
2022-12-20T22:06:20.608Z,10.13
2022-12-20T22:08:47.864Z,10.10
2022-12-20T22:11:17.787Z,9.90
2022-12-20T22:13:45.147Z,9.87
2022-12-20T22:16:30.196Z,10.07
2022-12-20T22:18:59.219Z,9.37
2022-12-20T22:21:28.928Z,10.13
2022-12-20T22:23:57.131Z,9.70
2022-12-20T22:26:26.763Z,8.97
2022-12-20T22:29:00.096Z,7.83
2022-12-20T22:31:27.489Z,9.17
2022-12-20T22:33:55.688Z,8.37
2022-12-20T22:36:25.363Z,8.17
2022-12-20T22:38:56.559Z,8.23
2022-12-20T22:41:29.305Z,8.17
2022-12-20T22:43:58.655Z,7.63
2022-12-20T22:46:29.283Z,8.47
2022-12-20T22:48:57.079Z,8.00
2022-12-20T22:51:31.009Z,7.50
2022-12-20T22:53:59.233Z,7.30
2022-12-20T22:56:26.427Z,7.87
2022-12-20T22:58:53.328Z,8.20
2022-12-20T23:01:21.461Z,7.77
2022-12-20T23:03:49.840Z,8.17
2022-12-20T23:06:19.473Z,7.73
2022-12-20T23:08:46.862Z,8.13
2022-12-20T23:11:41.916Z,7.93
2022-12-20T23:14:31.474Z,7.87
2022-12-20T23:16:58.888Z,8.00
2022-12-20T23:19:26.254Z,7.77
2022-12-20T23:22:11.959Z,7.50
2022-12-20T23:24:38.852Z,8.43
2022-12-20T23:27:05.601Z,8.70
2022-12-20T23:29:32.710Z,8.43
2022-12-20T23:31:59.861Z,8.30
2022-12-20T23:34:26.741Z,7.57
2022-12-20T23:36:53.458Z,8.23
2022-12-20T23:39:20.175Z,8.00
2022-12-20T23:41:46.856Z,7.67
2022-12-20T23:44:13.557Z,7.60
2022-12-20T23:46:40.326Z,7.67
2022-12-20T23:49:07.050Z,7.77
2022-12-20T23:51:34.707Z,7.63
2022-12-20T23:54:01.697Z,8.00
2022-12-20T23:56:28.451Z,7.40
2022-12-20T23:58:55.661Z,7.43
